Time;durP1;ratioP1;P1;durP2;ratioP2;P2;SDS_P1;SDS_P2;PMS_P1;PMS_P2;Temp;Humidity;BMP_temperature;BMP_pressure;BME280_temperature;BME280_humidity;BME280_pressure;Samples;Min_cycle;Max_cycle;Signal;HPM_P1;HPM_P2
2023/10/07 00:00:16;;;;;;;40.35;22.25;;;;;;;24.93;nan;98039.44;4847427;29;20060;-66
2023/10/07 00:02:45;;;;;;;35.75;22.60;;;;;;;24.90;nan;98039.25;4842523;29;20150;-65
2023/10/07 00:05:16;;;;;;;33.08;22.67;;;;;;;24.96;nan;98038.81;4845709;29;20129;-65
2023/10/07 00:07:46;;;;;;;29.58;21.33;;;;;;;25.06;nan;98043.25;4844055;29;20109;-65
2023/10/07 00:10:25;;;;;;;31.40;22.70;;;;;;;25.00;nan;98050.66;4841103;29;20298;-65
2023/10/07 00:12:57;;;;;;;34.63;23.73;;;;;;;24.95;nan;98056.19;4844518;29;20053;-65
2023/10/07 00:15:30;;;;;;;29.92;21.73;;;;;;;24.90;nan;98052.78;4844998;29;20058;-65
2023/10/07 00:18:11;;;;;;;33.13;22.95;;;;;;;24.77;nan;98051.66;4835582;29;20054;-65
2023/10/07 00:20:44;;;;;;;29.13;20.80;;;;;;;24.77;nan;98046.22;4852645;29;20053;-65
2023/10/07 00:23:28;;;;;;;33.47;22.77;;;;;;;25.00;nan;98064.22;4843641;29;20054;-65
2023/10/07 00:25:58;;;;;;;31.27;21.90;;;;;;;24.90;nan;98059.00;4849180;29;20495;-65
2023/10/07 00:28:35;;;;;;;30.60;22.08;;;;;;;24.93;nan;98055.69;4852736;29;20339;-65
2023/10/07 00:31:22;;;;;;;29.08;21.42;;;;;;;24.90;nan;98059.00;4851333;29;20538;-65
2023/10/07 00:34:14;;;;;;;32.20;21.20;;;;;;;24.85;nan;98064.50;4854421;29;20482;-65
2023/10/07 00:36:47;;;;;;;29.90;21.13;;;;;;;24.77;nan;98064.38;4850831;29;20717;-65
2023/10/07 00:39:23;;;;;;;29.15;21.52;;;;;;;24.68;nan;98071.59;4850669;29;20097;-65
2023/10/07 00:41:58;;;;;;;33.20;21.30;;;;;;;24.78;nan;98068.72;4866763;29;20562;-65
2023/10/07 00:44:32;;;;;;;31.70;21.08;;;;;;;24.87;nan;98077.78;4851114;29;20046;-65
2023/10/07 00:49:42;;;;;;;29.45;21.38;;;;;;;24.92;nan;98081.16;4871103;29;20132;-65
2023/10/07 00:52:33;;;;;;;30.77;21.30;;;;;;;24.71;nan;98088.06;4863218;29;20394;-65
2023/10/07 00:57:36;;;;;;;27.63;21.63;;;;;;;24.72;nan;98105.91;4834279;29;20046;-65
2023/10/07 01:08:50;;;;;;;35.35;22.63;;;;;;;24.53;nan;98116.00;4828821;29;20751;-65
2023/10/07 01:11:22;;;;;;;29.60;20.98;;;;;;;24.72;nan;98119.47;4855405;29;20144;-65
2023/10/07 01:13:52;;;;;;;31.73;22.85;;;;;;;24.63;nan;98118.53;4855837;29;20057;-65
2023/10/07 01:19:52;;;;;;;28.52;21.95;;;;;;;24.58;nan;98122.13;4838967;29;20054;-65
2023/10/07 01:22:11;;;;;;;32.90;22.40;;;;;;;24.54;nan;98131.16;4848754;29;20034;-65
2023/10/07 01:24:44;;;;;;;28.25;21.75;;;;;;;24.74;nan;98133.47;4855220;29;20046;-65
2023/10/07 01:33:02;;;;;;;34.88;21.92;;;;;;;24.95;nan;98147.53;4847544;29;20061;-64
2023/10/07 01:35:39;;;;;;;33.92;21.85;;;;;;;24.84;nan;98148.75;4853424;29;20102;-64
2023/10/07 01:38:09;;;;;;;31.63;22.08;;;;;;;24.95;nan;98163.78;4850442;29;20057;-65
2023/10/07 01:43:20;;;;;;;37.22;24.08;;;;;;;24.91;nan;98163.56;4855409;29;20049;-65
2023/10/07 01:45:52;;;;;;;32.78;21.98;;;;;;;25.09;nan;98169.22;4853790;29;20132;-64
2023/10/07 01:48:22;;;;;;;33.73;23.07;;;;;;;25.13;nan;98164.81;4868747;29;20057;-65
2023/10/07 01:50:51;;;;;;;42.92;21.58;;;;;;;25.23;nan;98175.44;4852730;29;20685;-65
2023/10/07 01:53:21;;;;;;;34.45;22.92;;;;;;;24.97;nan;98178.63;4853477;29;20819;-65
2023/10/07 01:55:52;;;;;;;30.40;22.15;;;;;;;25.11;nan;98172.41;4855249;29;20057;-64
2023/10/07 01:58:24;;;;;;;33.72;22.45;;;;;;;25.16;nan;98181.25;4855048;29;20526;-65
2023/10/07 02:00:57;;;;;;;35.85;21.55;;;;;;;25.33;nan;98180.66;4852912;29;20064;-65
2023/10/07 02:03:27;;;;;;;34.20;21.90;;;;;;;25.45;nan;98180.97;4854814;29;20044;-65
2023/10/07 02:05:57;;;;;;;31.10;20.85;;;;;;;25.36;nan;98186.28;4863349;29;20083;-65
2023/10/07 02:08:29;;;;;;;37.40;20.75;;;;;;;25.37;nan;98192.50;4854871;29;20128;-64
2023/10/07 02:10:59;;;;;;;34.92;20.48;;;;;;;25.57;nan;98194.88;4853018;29;20068;-65
2023/10/07 02:13:28;;;;;;;29.23;20.17;;;;;;;25.65;nan;98205.00;4857174;29;20060;-64
2023/10/07 02:15:58;;;;;;;30.98;21.50;;;;;;;25.54;nan;98203.59;4855939;29;20042;-65
2023/10/07 02:18:27;;;;;;;40.53;22.05;;;;;;;25.48;nan;98211.00;4835232;29;20109;-65
2023/10/07 02:21:10;;;;;;;34.20;21.98;;;;;;;25.50;nan;98207.97;4843219;29;20051;-65
2023/10/07 02:23:40;;;;;;;35.88;21.85;;;;;;;25.71;nan;98209.19;4852047;29;20060;-65
2023/10/07 02:26:20;;;;;;;33.95;22.52;;;;;;;25.85;nan;98211.91;4852711;29;20053;-65
2023/10/07 02:28:52;;;;;;;45.47;21.95;;;;;;;26.06;nan;98215.00;4853593;29;20483;-65
2023/10/07 02:31:23;;;;;;;34.08;21.15;;;;;;;26.03;nan;98221.03;4854380;29;20191;-65
2023/10/07 02:33:52;;;;;;;30.08;20.85;;;;;;;26.06;nan;98221.25;4836409;29;20407;-65
2023/10/07 02:36:28;;;;;;;33.72;22.05;;;;;;;26.10;nan;98221.44;4851460;29;20065;-65
2023/10/07 02:39:04;;;;;;;32.85;21.25;;;;;;;26.06;nan;98223.97;4852744;29;20915;-65
2023/10/07 02:41:34;;;;;;;31.17;20.58;;;;;;;26.33;nan;98231.28;4854136;29;20714;-65
2023/10/07 02:44:15;;;;;;;32.28;22.33;;;;;;;26.41;nan;98229.72;4848887;29;20050;-66
2023/10/07 02:46:52;;;;;;;29.58;20.77;;;;;;;26.31;nan;98230.75;4850068;29;20049;-65
2023/10/07 02:49:22;;;;;;;31.33;20.85;;;;;;;26.38;nan;98223.78;4871705;29;20117;-65
2023/10/07 02:52:01;;;;;;;38.50;20.50;;;;;;;26.39;nan;98230.03;4864152;29;20519;-65
2023/10/07 02:54:33;;;;;;;35.95;20.27;;;;;;;26.40;nan;98230.81;4853639;29;20731;-65
2023/10/07 02:59:36;;;;;;;26.45;19.42;;;;;;;26.80;nan;98240.72;4853901;29;20060;-65
2023/10/07 03:08:01;;;;;;;30.85;20.05;;;;;;;27.03;nan;98250.53;4840114;29;20053;-65
2023/10/07 03:10:43;;;;;;;32.83;20.13;;;;;;;26.99;nan;98248.72;4835237;29;20130;-65
2023/10/07 03:13:16;;;;;;;37.60;20.70;;;;;;;26.97;nan;98248.22;4833662;29;20042;-65
2023/10/07 03:15:46;;;;;;;34.42;19.98;;;;;;;27.05;nan;98252.91;4846654;29;20046;-65
2023/10/07 03:18:22;;;;;;;29.98;18.27;;;;;;;27.31;nan;98250.38;4849854;29;20041;-65
2023/10/07 03:21:11;;;;;;;35.42;18.60;;;;;;;27.28;nan;98257.22;4853130;29;20049;-65
2023/10/07 03:23:47;;;;;;;33.30;19.38;;;;;;;27.48;nan;98264.88;4842886;29;20074;-65
2023/10/07 03:26:18;;;;;;;30.75;18.60;;;;;;;27.58;nan;98264.59;4850774;29;20045;-65
2023/10/07 03:28:53;;;;;;;29.67;18.75;;;;;;;27.62;nan;98271.00;4851781;29;20056;-65
2023/10/07 03:31:59;;;;;;;32.45;19.02;;;;;;;27.85;nan;98270.91;4853171;29;20068;-65
2023/10/07 03:34:18;;;;;;;27.83;19.25;;;;;;;27.96;nan;98273.06;4838572;29;20424;-65
2023/10/07 03:37:14;;;;;;;29.95;18.15;;;;;;;28.07;nan;98273.56;4851584;29;20056;-65
2023/10/07 03:39:55;;;;;;;32.10;18.20;;;;;;;27.94;nan;98279.91;4846467;29;20053;-65
2023/10/07 03:42:25;;;;;;;38.33;19.45;;;;;;;28.02;nan;98288.13;4852154;29;20489;-65
2023/10/07 03:44:54;;;;;;;34.28;18.17;;;;;;;28.31;nan;98279.41;4852446;29;20138;-65
2023/10/07 03:47:25;;;;;;;29.42;17.92;;;;;;;28.26;nan;98285.00;4858807;29;20049;-65
2023/10/07 03:49:58;;;;;;;31.10;18.48;;;;;;;28.19;nan;98276.50;4852381;29;20072;-65
2023/10/07 03:52:28;;;;;;;34.67;18.83;;;;;;;28.58;nan;98287.28;4852841;29;20045;-65
2023/10/07 03:54:57;;;;;;;32.67;18.40;;;;;;;28.67;nan;98283.78;4852862;29;20441;-65
2023/10/07 03:57:26;;;;;;;34.72;18.85;;;;;;;28.93;nan;98288.13;4849569;29;20076;-65
2023/10/07 03:59:56;;;;;;;28.45;18.90;;;;;;;28.85;nan;98291.66;4853040;29;20470;-65
2023/10/07 04:02:34;;;;;;;32.92;18.50;;;;;;;28.96;nan;98290.19;4852871;29;20064;-65
2023/10/07 04:05:12;;;;;;;28.33;18.35;;;;;;;29.25;nan;98292.25;4846229;29;20137;-65
2023/10/07 04:07:43;;;;;;;25.38;17.92;;;;;;;29.37;nan;98294.31;4842478;29;20145;-65
2023/10/07 04:12:49;;;;;;;28.10;15.98;;;;;;;30.02;nan;98299.41;4840548;29;20073;-65
2023/10/07 04:15:27;;;;;;;29.13;16.48;;;;;;;30.03;nan;98298.28;4848162;29;20137;-65
2023/10/07 04:17:59;;;;;;;30.42;17.48;;;;;;;30.50;nan;98288.03;4850640;29;20513;-65
2023/10/07 04:21:12;;;;;;;30.33;18.00;;;;;;;30.46;nan;98291.75;4854627;29;20064;-65
2023/10/07 04:23:26;;;;;;;31.02;16.52;;;;;;;30.87;nan;98289.03;4848996;29;20057;-65
2023/10/07 04:25:56;;;;;;;28.83;17.30;;;;;;;30.62;nan;98292.78;4849347;29;20117;-65
2023/10/07 04:28:28;;;;;;;31.48;16.42;;;;;;;30.80;nan;98293.44;4849434;29;20053;-65
2023/10/07 04:30:58;;;;;;;41.80;17.25;;;;;;;30.89;nan;98302.38;4853008;29;20058;-65
2023/10/07 04:33:33;;;;;;;35.05;17.40;;;;;;;31.14;nan;98302.16;4853195;29;20091;-65
2023/10/07 04:36:04;;;;;;;26.05;16.10;;;;;;;31.80;nan;98302.09;4856950;29;20073;-65
2023/10/07 04:38:52;;;;;;;34.22;16.55;;;;;;;31.81;nan;98297.44;4860612;29;20067;-65
2023/10/07 04:43:59;;;;;;;26.73;15.52;;;;;;;32.16;nan;98293.13;4863200;29;20456;-65
2023/10/07 04:46:29;;;;;;;26.08;15.73;;;;;;;32.13;nan;98293.03;4863201;29;20052;-65
2023/10/07 04:49:12;;;;;;;35.55;16.15;;;;;;;32.74;nan;98297.28;4851385;29;20065;-65
2023/10/07 04:54:12;;;;;;;25.80;15.32;;;;;;;32.90;nan;98294.56;4837398;29;20168;-65
2023/10/07 04:56:47;;;;;;;24.50;15.60;;;;;;;32.80;nan;98289.56;4857777;29;20180;-65
2023/10/07 04:59:17;;;;;;;32.80;17.27;;;;;;;32.51;nan;98291.47;4862429;29;20064;-65
2023/10/07 05:01:55;;;;;;;24.55;15.98;;;;;;;32.88;nan;98283.16;4862840;29;20509;-66
2023/10/07 05:04:25;;;;;;;23.70;15.80;;;;;;;33.14;nan;98289.03;4856473;29;20072;-65
2023/10/07 05:06:54;;;;;;;25.45;15.35;;;;;;;33.17;nan;98282.81;4855573;29;20068;-65
2023/10/07 05:09:26;;;;;;;29.05;15.18;;;;;;;33.43;nan;98290.56;4860437;29;20061;-66
2023/10/07 05:11:57;;;;;;;21.15;14.95;;;;;;;33.75;nan;98291.41;4865549;29;20552;-65
2023/10/07 05:14:29;;;;;;;28.48;15.02;;;;;;;33.98;nan;98294.34;4869847;29;20120;-66
2023/10/07 05:16:58;;;;;;;22.58;13.50;;;;;;;33.52;nan;98293.94;4855545;29;20053;-66
2023/10/07 05:19:30;;;;;;;27.75;13.93;;;;;;;33.57;nan;98290.13;4851714;29;20056;-65
2023/10/07 05:22:00;;;;;;;24.77;13.57;;;;;;;33.98;nan;98289.66;4839022;29;20058;-64
2023/10/07 05:24:29;;;;;;;26.67;13.73;;;;;;;34.02;nan;98290.53;4855716;29;20481;-65
2023/10/07 05:27:03;;;;;;;24.42;13.15;;;;;;;33.94;nan;98290.72;4853046;29;20060;-64
2023/10/07 05:29:32;;;;;;;22.92;13.38;;;;;;;34.05;nan;98295.28;4855029;29;20061;-64
2023/10/07 05:32:02;;;;;;;20.35;13.93;;;;;;;33.93;nan;98298.16;4856157;29;20164;-66
2023/10/07 05:34:33;;;;;;;24.73;13.32;;;;;;;33.75;nan;98297.72;4851651;29;20098;-66
2023/10/07 05:37:11;;;;;;;26.83;12.77;;;;;;;33.69;nan;98292.81;4845773;29;20521;-64
2023/10/07 05:39:44;;;;;;;24.98;13.32;;;;;;;33.84;nan;98298.34;4844092;29;20056;-65
2023/10/07 05:42:13;;;;;;;21.02;13.00;;;;;;;34.24;nan;98289.09;4852513;29;20052;-64
2023/10/07 05:44:43;;;;;;;18.95;12.20;;;;;;;34.04;nan;98292.91;4841157;29;20050;-64
2023/10/07 05:47:13;;;;;;;25.70;13.30;;;;;;;34.19;nan;98290.16;4852692;29;20409;-63
2023/10/07 05:49:42;;;;;;;19.20;11.55;;;;;;;33.77;nan;98292.66;4857598;29;20129;-65
2023/10/07 05:52:12;;;;;;;21.27;12.20;;;;;;;34.17;nan;98286.16;4846976;29;20052;-68
2023/10/07 05:54:43;;;;;;;18.52;11.35;;;;;;;34.40;nan;98273.34;4847118;29;20057;-67
2023/10/07 05:57:13;;;;;;;28.02;12.38;;;;;;;33.90;nan;98284.34;4845471;29;20142;-67
2023/10/07 05:59:43;;;;;;;21.23;11.98;;;;;;;34.10;nan;98288.72;4839883;29;20473;-68
2023/10/07 06:02:13;;;;;;;19.85;11.32;;;;;;;33.87;nan;98280.31;4851517;29;20546;-68
2023/10/07 06:04:43;;;;;;;25.60;11.93;;;;;;;33.94;nan;98277.78;4854962;29;20049;-68
2023/10/07 06:07:20;;;;;;;24.67;11.40;;;;;;;34.14;nan;98276.66;4853127;29;20445;-68
2023/10/07 06:09:56;;;;;;;24.45;12.82;;;;;;;33.97;nan;98279.78;4842126;29;20051;-68
2023/10/07 06:12:27;;;;;;;19.15;12.32;;;;;;;33.85;nan;98274.41;4844237;29;20064;-68
2023/10/07 06:14:57;;;;;;;24.83;12.57;;;;;;;34.27;nan;98266.38;4850509;29;20078;-68
2023/10/07 06:17:27;;;;;;;28.73;14.93;;;;;;;34.26;nan;98259.28;4836520;29;20050;-68
2023/10/07 06:19:56;;;;;;;21.45;12.85;;;;;;;34.14;nan;98267.63;4839023;29;20708;-67
2023/10/07 06:22:25;;;;;;;23.77;12.98;;;;;;;34.05;nan;98262.31;4839152;29;20049;-69
2023/10/07 06:24:58;;;;;;;74.82;52.90;;;;;;;34.17;nan;98251.22;4852591;29;20045;-67
2023/10/07 06:27:28;;;;;;;31.70;18.13;;;;;;;33.97;nan;98249.56;4850599;29;20135;-67
2023/10/07 06:29:58;;;;;;;24.40;12.68;;;;;;;33.87;nan;98257.53;4846793;29;20057;-66
2023/10/07 06:32:41;;;;;;;22.58;12.85;;;;;;;33.58;nan;98248.59;4849621;29;20045;-66
2023/10/07 06:35:14;;;;;;;21.48;12.43;;;;;;;33.30;nan;98245.13;4844201;29;20060;-67
2023/10/07 06:37:44;;;;;;;16.90;11.73;;;;;;;33.36;nan;98236.28;4845241;29;20042;-65
2023/10/07 06:40:24;;;;;;;20.73;12.73;;;;;;;33.01;nan;98227.09;4842412;29;20424;-67
2023/10/07 06:42:58;;;;;;;24.65;13.13;;;;;;;33.04;nan;98223.63;4841810;29;20148;-66
2023/10/07 06:45:39;;;;;;;19.05;13.77;;;;;;;32.96;nan;98232.81;4850352;29;20059;-65
2023/10/07 06:48:08;;;;;;;28.88;13.90;;;;;;;33.06;nan;98226.03;4839312;29;20060;-66
2023/10/07 06:50:45;;;;;;;22.23;12.73;;;;;;;33.12;nan;98222.66;4841543;29;20736;-66
2023/10/07 06:53:22;;;;;;;20.40;12.10;;;;;;;33.12;nan;98228.16;4839117;29;20041;-66
2023/10/07 06:55:53;;;;;;;19.13;11.60;;;;;;;32.99;nan;98215.66;4850428;29;20060;-65
2023/10/07 06:58:25;;;;;;;24.02;11.18;;;;;;;33.02;nan;98216.91;4837280;29;20138;-65
2023/10/07 07:01:09;;;;;;;22.48;10.60;;;;;;;32.98;nan;98208.56;4846856;29;20049;-65
2023/10/07 07:03:39;;;;;;;22.77;11.43;;;;;;;33.02;nan;98214.94;4847685;29;20697;-68
2023/10/07 07:06:16;;;;;;;19.75;11.13;;;;;;;33.12;nan;98211.69;4861356;29;20085;-67
2023/10/07 07:08:46;;;;;;;24.38;11.55;;;;;;;33.01;nan;98210.63;4849790;29;20156;-65
2023/10/07 07:11:16;;;;;;;28.60;11.85;;;;;;;32.93;nan;98195.88;4848460;29;20106;-64
2023/10/07 07:13:46;;;;;;;27.17;13.68;;;;;;;33.31;nan;98197.28;4842322;29;20129;-66
2023/10/07 07:16:15;;;;;;;24.25;13.27;;;;;;;33.42;nan;98190.09;4853871;29;20056;-65
2023/10/07 07:18:45;;;;;;;22.90;11.77;;;;;;;33.58;nan;98187.38;4848351;29;20068;-65
2023/10/07 07:21:31;;;;;;;24.42;10.80;;;;;;;33.22;nan;98180.19;4845561;29;20052;-66
2023/10/07 07:24:01;;;;;;;22.52;11.32;;;;;;;33.57;nan;98180.28;4850076;29;20050;-69
2023/10/07 07:26:30;;;;;;;27.65;10.77;;;;;;;33.27;nan;98172.50;4850656;29;20053;-69
2023/10/07 07:29:04;;;;;;;18.17;10.07;;;;;;;33.14;nan;98170.16;4858743;29;20065;-67
2023/10/07 07:31:34;;;;;;;16.75;9.32;;;;;;;33.04;nan;98171.47;4851804;29;20045;-67
2023/10/07 07:34:12;;;;;;;21.05;9.60;;;;;;;32.99;nan;98169.00;4851142;29;20121;-68
2023/10/07 07:36:47;;;;;;;23.27;9.43;;;;;;;33.12;nan;98172.44;4845338;29;20050;-69
2023/10/07 07:39:19;;;;;;;16.65;10.15;;;;;;;33.15;nan;98169.06;4854200;29;20053;-67
2023/10/07 07:42:00;;;;;;;14.23;9.87;;;;;;;33.08;nan;98163.34;4858914;29;20041;-68
2023/10/07 07:44:33;;;;;;;21.70;10.85;;;;;;;32.98;nan;98165.44;4868986;29;20152;-69
2023/10/07 07:47:03;;;;;;;22.60;11.63;;;;;;;32.84;nan;98156.84;4848898;29;20057;-69
2023/10/07 07:49:36;;;;;;;20.17;10.98;;;;;;;32.95;nan;98155.19;4852613;29;20049;-69
2023/10/07 07:52:08;;;;;;;20.55;9.95;;;;;;;33.03;nan;98155.34;4853544;29;20057;-70
2023/10/07 07:54:37;;;;;;;19.13;9.82;;;;;;;33.08;nan;98147.66;4860718;29;20053;-68
2023/10/07 07:57:12;;;;;;;21.88;10.35;;;;;;;32.87;nan;98142.44;4842318;29;20061;-67
2023/10/07 07:59:43;;;;;;;16.98;8.55;;;;;;;32.85;nan;98141.97;4846553;29;20050;-66
2023/10/07 08:02:13;;;;;;;19.92;9.50;;;;;;;32.90;nan;98140.91;4845163;29;20316;-67
2023/10/07 08:04:47;;;;;;;22.52;10.30;;;;;;;32.98;nan;98140.75;4842272;29;20077;-66
2023/10/07 08:10:03;;;;;;;21.00;10.43;;;;;;;33.00;nan;98134.13;4840714;29;20054;-66
2023/10/07 08:12:36;;;;;;;20.00;9.60;;;;;;;33.00;nan;98134.13;4846479;29;20433;-66
2023/10/07 08:15:21;;;;;;;24.65;9.98;;;;;;;32.95;nan;98138.72;4841405;29;20724;-65
2023/10/07 08:17:52;;;;;;;22.05;10.52;;;;;;;32.93;nan;98135.53;4848688;29;20061;-66
2023/10/07 08:21:07;;;;;;;16.75;9.43;;;;;;;32.93;nan;98130.03;4852347;29;20230;-69
2023/10/07 08:26:20;;;;;;;17.77;9.13;;;;;;;32.93;nan;98116.31;4838520;29;20060;-68
2023/10/07 08:28:59;;;;;;;19.63;9.43;;;;;;;32.88;nan;98116.56;4838544;29;20132;-66
2023/10/07 08:31:49;;;;;;;17.40;10.20;;;;;;;32.96;nan;98120.31;4839873;29;20596;-66
2023/10/07 08:34:23;;;;;;;16.35;8.98;;;;;;;32.85;nan;98120.03;4839330;29;20390;-67
2023/10/07 08:36:54;;;;;;;19.98;9.73;;;;;;;32.90;nan;98113.47;4842797;29;20053;-68
2023/10/07 08:39:27;;;;;;;18.98;8.57;;;;;;;32.89;nan;98109.94;4840380;29;20045;-68
2023/10/07 08:42:00;;;;;;;19.95;8.48;;;;;;;32.91;nan;98117.84;4849946;29;20152;-69
2023/10/07 08:44:31;;;;;;;18.85;7.93;;;;;;;32.90;nan;98103.31;4842557;29;20049;-68
2023/10/07 08:47:04;;;;;;;16.48;8.88;;;;;;;32.92;nan;98100.22;4856324;29;20049;-68
2023/10/07 08:49:36;;;;;;;16.63;8.30;;;;;;;33.00;nan;98103.94;4840182;29;20088;-68
2023/10/07 08:52:11;;;;;;;14.63;8.32;;;;;;;33.03;nan;98103.22;4838084;29;20064;-68
2023/10/07 08:54:44;;;;;;;21.02;8.75;;;;;;;33.00;nan;98093.75;4841242;29;20055;-68
2023/10/07 08:57:22;;;;;;;20.33;8.15;;;;;;;32.99;nan;98094.91;4842467;29;20061;-68
2023/10/07 08:59:59;;;;;;;16.10;8.80;;;;;;;33.05;nan;98090.75;4840160;29;20233;-68
2023/10/07 09:02:32;;;;;;;15.82;8.32;;;;;;;32.97;nan;98097.22;4840968;29;20374;-67
2023/10/07 09:05:06;;;;;;;18.42;8.57;;;;;;;32.94;nan;98082.25;4504579;29;9999767;-67
2023/10/07 09:07:36;;;;;;;14.88;7.93;;;;;;;32.87;nan;98084.81;4843006;29;20053;-67
2023/10/07 09:10:17;;;;;;;15.90;8.95;;;;;;;32.88;nan;98089.13;4847841;29;20049;-68
2023/10/07 09:12:48;;;;;;;18.48;7.80;;;;;;;32.94;nan;98082.25;4847786;29;20468;-67
2023/10/07 09:15:34;;;;;;;13.68;8.02;;;;;;;32.92;nan;98081.81;4848729;29;20114;-67
2023/10/07 09:18:04;;;;;;;15.48;7.38;;;;;;;32.96;nan;98076.41;4841983;29;20046;-67
2023/10/07 09:20:45;;;;;;;23.60;8.23;;;;;;;32.87;nan;98073.03;4840077;29;20503;-69
2023/10/07 09:23:15;;;;;;;22.10;8.27;;;;;;;32.87;nan;98071.09;4842418;29;20073;-69
2023/10/07 09:25:46;;;;;;;16.40;8.23;;;;;;;32.84;nan;98066.31;4847604;29;20049;-67
2023/10/07 09:28:19;;;;;;;15.00;7.90;;;;;;;32.86;nan;98071.44;4843390;29;20528;-67
2023/10/07 09:30:48;;;;;;;;;;;;;;;32.87;nan;98062.88;4851288;29;20046;-66
2023/10/07 09:33:19;;;;;;;14.63;7.90;;;;;;;32.86;nan;98069.50;4840570;29;19932;-67
2023/10/07 09:38:44;;;;;;;11.45;7.20;;;;;;;32.84;nan;98055.31;4845025;29;20087;-68
2023/10/07 09:41:24;;;;;;;16.92;7.13;;;;;;;32.90;nan;98055.88;4839954;29;20069;-70
2023/10/07 09:43:56;;;;;;;12.98;7.40;;;;;;;32.88;nan;98061.69;4827865;29;20157;-68
2023/10/07 09:46:27;;;;;;;14.20;7.27;;;;;;;32.85;nan;98065.16;4852199;29;20045;-67
2023/10/07 09:49:00;;;;;;;15.25;7.57;;;;;;;32.87;nan;98051.91;4860860;29;20058;-68
2023/10/07 09:51:41;;;;;;;15.98;7.45;;;;;;;32.87;nan;98051.91;4846693;29;20053;-68
2023/10/07 09:54:47;;;;;;;20.77;7.85;;;;;;;32.90;nan;98051.19;4845820;29;20045;-68
2023/10/07 09:57:19;;;;;;;17.98;7.97;;;;;;;32.84;nan;98044.34;4847649;29;20078;-68
2023/10/07 10:03:39;;;;;;;20.65;8.27;;;;;;;32.84;nan;98041.63;4843253;29;20060;-67
2023/10/07 10:06:47;;;;;;;17.55;8.00;;;;;;;32.82;nan;98046.66;4845736;29;20214;-67
2023/10/07 10:09:24;;;;;;;18.73;8.35;;;;;;;32.69;nan;98049.84;4845178;29;20113;-67
2023/10/07 10:15:10;;;;;;;15.68;7.38;;;;;;;32.70;nan;98046.78;4843632;29;20072;-66
2023/10/07 10:17:48;;;;;;;14.57;7.35;;;;;;;32.67;nan;98044.72;4845201;29;20057;-66
2023/10/07 10:20:20;;;;;;;14.88;7.60;;;;;;;32.61;nan;98043.38;4852924;29;20395;-67
2023/10/07 10:22:57;;;;;;;16.27;7.55;;;;;;;32.57;nan;98041.69;4845083;29;20049;-67
2023/10/07 10:25:36;;;;;;;19.00;7.78;;;;;;;32.52;nan;98034.50;4841323;29;20050;-67
2023/10/07 10:28:10;;;;;;;12.63;7.75;;;;;;;32.51;nan;98041.94;4857181;29;20161;-67
2023/10/07 10:30:53;;;;;;;19.77;8.25;;;;;;;32.53;nan;98044.31;4840503;29;20501;-66
2023/10/07 10:33:25;;;;;;;9.75;7.53;;;;;;;32.54;nan;98040.44;4842447;29;20054;-66
2023/10/07 10:35:58;;;;;;;17.10;7.82;;;;;;;32.48;nan;98042.66;4842155;29;20118;-66
2023/10/07 10:38:38;;;;;;;16.63;8.45;;;;;;;32.47;nan;98046.53;4514783;29;9999885;-67
2023/10/07 10:41:08;;;;;;;21.27;7.72;;;;;;;32.44;nan;98043.72;4840496;29;20095;-67
2023/10/07 10:43:38;;;;;;;15.68;8.23;;;;;;;32.40;nan;98049.06;4844587;29;20533;-68
2023/10/07 10:46:08;;;;;;;19.77;8.77;;;;;;;32.34;nan;98045.00;4840267;29;20134;-66
2023/10/07 10:48:40;;;;;;;16.85;7.95;;;;;;;32.35;nan;98043.06;4842294;29;20125;-66
2023/10/07 10:51:09;;;;;;;13.87;7.50;;;;;;;32.31;nan;98037.47;4843610;29;20073;-68
2023/10/07 10:53:48;;;;;;;13.38;7.97;;;;;;;32.23;nan;98046.66;4844311;29;20106;-66
2023/10/07 10:56:17;;;;;;;16.63;9.70;;;;;;;32.21;nan;98042.69;4842991;29;20128;-67
2023/10/07 10:58:53;;;;;;;13.95;8.23;;;;;;;32.13;nan;98043.63;4846525;29;20149;-67
2023/10/07 11:01:23;;;;;;;15.35;7.50;;;;;;;32.13;nan;98041.69;4503661;29;10000710;-66
2023/10/07 11:03:52;;;;;;;18.73;8.73;;;;;;;32.14;nan;98045.22;4834014;29;20073;-67
2023/10/07 11:06:23;;;;;;;22.90;10.55;;;;;;;31.99;nan;98039.34;4841019;29;20065;-67
2023/10/07 11:08:53;;;;;;;20.33;8.05;;;;;;;31.98;nan;98040.47;4839401;29;20692;-69
2023/10/07 11:11:26;;;;;;;15.23;8.50;;;;;;;31.95;nan;98046.66;4839666;29;20053;-68
2023/10/07 11:13:56;;;;;;;18.98;9.98;;;;;;;31.97;nan;98049.81;4848586;29;20053;-68
2023/10/07 11:16:26;;;;;;;29.52;10.02;;;;;;;31.88;nan;98045.63;4839083;29;20745;-69
2023/10/07 11:18:57;;;;;;;17.85;9.15;;;;;;;31.81;nan;98048.97;4832523;29;20058;-69
2023/10/07 11:21:26;;;;;;;16.67;9.43;;;;;;;31.75;nan;98053.09;4834722;29;20947;-68
2023/10/07 11:23:57;;;;;;;16.33;7.93;;;;;;;31.71;nan;98049.47;4848360;29;20054;-68
2023/10/07 11:26:32;;;;;;;14.40;8.10;;;;;;;31.62;nan;98048.78;4847199;29;20053;-69
2023/10/07 11:29:13;;;;;;;13.15;8.30;;;;;;;31.55;nan;98049.41;4842828;29;20557;-68
2023/10/07 11:31:42;;;;;;;14.15;8.77;;;;;;;31.50;nan;98057.00;4845917;29;20064;-68
2023/10/07 11:34:13;;;;;;;15.50;8.82;;;;;;;31.45;nan;98052.56;4844703;29;20058;-68
2023/10/07 11:36:44;;;;;;;18.70;9.07;;;;;;;31.39;nan;98047.66;4847132;29;20041;-68
2023/10/07 11:39:16;;;;;;;15.02;8.80;;;;;;;31.35;nan;98054.97;4841795;29;20064;-67
2023/10/07 11:41:47;;;;;;;19.55;9.35;;;;;;;31.29;nan;98053.63;4839322;29;20110;-68
2023/10/07 11:44:19;;;;;;;29.73;10.43;;;;;;;31.27;nan;98055.91;4846348;29;20053;-68
2023/10/07 11:46:50;;;;;;;;;;;;;;;31.20;nan;98057.25;4845688;29;20046;-68
2023/10/07 11:49:21;;;;;;;19.15;11.30;;;;;;;31.18;nan;98067.75;4848316;29;19959;-68
2023/10/07 11:51:51;;;;;;;19.92;10.32;;;;;;;31.18;nan;98054.09;4851544;29;20049;-67
2023/10/07 11:54:24;;;;;;;17.90;10.75;;;;;;;31.08;nan;98061.94;4846853;29;20063;-68
2023/10/07 11:56:53;;;;;;;;;;;;;;;31.04;nan;98070.03;4840597;29;20466;-66
2023/10/07 11:59:23;;;;;;;19.08;11.27;;;;;;;30.94;nan;98064.97;4857622;29;19932;-66
2023/10/07 12:01:54;;;;;;;17.15;11.80;;;;;;;30.89;nan;98073.41;4851436;29;20052;-68
2023/10/07 12:04:23;;;;;;;23.10;12.63;;;;;;;30.85;nan;98069.75;4852122;29;20045;-67
2023/10/07 12:06:53;;;;;;;20.33;12.13;;;;;;;30.83;nan;98073.97;4848403;29;20054;-66
2023/10/07 12:09:24;;;;;;;23.73;13.32;;;;;;;30.81;nan;98079.78;4858049;29;20054;-64
2023/10/07 12:11:53;;;;;;;21.45;12.20;;;;;;;30.71;nan;98078.28;4847669;29;20053;-64
2023/10/07 12:14:23;;;;;;;20.98;12.57;;;;;;;30.67;nan;98076.59;4852845;29;20061;-64
2023/10/07 12:16:53;;;;;;;31.17;12.65;;;;;;;30.59;nan;98077.47;4853015;29;20598;-64
2023/10/07 12:19:25;;;;;;;25.27;12.70;;;;;;;30.51;nan;98081.09;4847507;29;20057;-64
2023/10/07 12:21:56;;;;;;;29.45;14.02;;;;;;;30.45;nan;98085.19;4846732;29;20057;-64
2023/10/07 12:24:26;;;;;;;22.85;13.55;;;;;;;30.40;nan;98082.63;4841977;29;20054;-63
2023/10/07 12:26:56;;;;;;;28.42;14.18;;;;;;;30.33;nan;98085.91;4849409;29;20060;-64
2023/10/07 12:29:26;;;;;;;22.63;13.80;;;;;;;30.28;nan;98095.09;4858150;29;20057;-64
2023/10/07 12:31:57;;;;;;;23.58;13.40;;;;;;;30.23;nan;98089.03;4853909;29;20064;-63
2023/10/07 12:34:28;;;;;;;30.98;14.45;;;;;;;30.20;nan;98096.00;4845017;29;20091;-64
2023/10/07 12:36:59;;;;;;;;;;;;;;;30.16;nan;98097.00;4839030;29;20085;-63
2023/10/07 12:39:38;;;;;;;25.90;14.70;;;;;;;30.09;nan;98094.81;4843313;29;20318;-64
2023/10/07 12:42:08;;;;;;;19.90;13.75;;;;;;;30.01;nan;98092.94;4837617;29;20046;-66
2023/10/07 12:44:39;;;;;;;28.30;13.40;;;;;;;29.95;nan;98088.84;4844823;29;20057;-63
2023/10/07 12:47:09;;;;;;;29.73;13.05;;;;;;;29.92;nan;98094.94;4838541;29;20136;-62
2023/10/07 12:49:40;;;;;;;25.27;14.13;;;;;;;29.87;nan;98104.13;4851243;29;20057;-61
2023/10/07 12:52:09;;;;;;;22.38;13.13;;;;;;;29.78;nan;98100.66;4845796;29;20510;-63
2023/10/07 12:54:38;;;;;;;18.15;13.20;;;;;;;29.75;nan;98105.97;4848177;29;20254;-62
2023/10/07 12:57:08;;;;;;;22.45;14.05;;;;;;;29.67;nan;98107.63;4845308;29;20109;-63
2023/10/07 12:59:37;;;;;;;26.85;14.48;;;;;;;29.67;nan;98112.28;4845800;29;20070;-62
2023/10/07 13:02:09;;;;;;;24.70;14.57;;;;;;;29.66;nan;98113.41;4843607;29;20165;-62